Time;durP1;ratioP1;P1;durP2;ratioP2;P2;SDS_P1;SDS_P2;PMS_P1;PMS_P2;Temp;Humidity;BMP_temperature;BMP_pressure;BME280_temperature;BME280_humidity;BME280_pressure;Samples;Min_cycle;Max_cycle;Signal;HPM_P1;HPM_P2
2022/03/09 00:00:34;;;;;;;9.43;3.35;;;;;;;;;;5045781;28;20504;-73
2022/03/09 00:03:01;;;;;;;9.57;3.95;;;;;;;;;;5047921;28;20029;-73
2022/03/09 00:05:27;;;;;;;8.18;3.40;;;;;;;;;;5042838;28;20028;-73
2022/03/09 00:07:53;;;;;;;9.68;3.78;;;;;;;;;;5045934;28;20017;-74
2022/03/09 00:10:20;;;;;;;7.50;3.53;;;;;;;;;;5043829;28;20119;-74
2022/03/09 00:12:46;;;;;;;4.40;3.13;;;;;;;;;;5037545;28;20028;-74
2022/03/09 00:15:12;;;;;;;10.05;3.75;;;;;;;;;;5035340;28;20508;-74
2022/03/09 00:17:38;;;;;;;6.32;3.70;;;;;;;;;;5040745;28;20059;-74
2022/03/09 00:20:06;;;;;;;9.63;3.72;;;;;;;;;;5038753;28;20025;-74
2022/03/09 00:22:32;;;;;;;5.38;3.55;;;;;;;;;;5043146;28;20124;-74
2022/03/09 00:24:58;;;;;;;9.63;3.63;;;;;;;;;;5045550;28;20044;-74
2022/03/09 00:27:24;;;;;;;5.00;3.10;;;;;;;;;;5041332;28;20029;-74
2022/03/09 00:29:50;;;;;;;10.55;3.63;;;;;;;;;;5043283;28;20595;-74
2022/03/09 00:32:17;;;;;;;7.15;3.40;;;;;;;;;;5043042;28;20091;-74
2022/03/09 00:34:43;;;;;;;6.07;3.47;;;;;;;;;;5047700;28;20519;-74
2022/03/09 00:37:09;;;;;;;5.30;3.35;;;;;;;;;;5041074;28;20041;-74
2022/03/09 00:39:35;;;;;;;6.63;3.25;;;;;;;;;;5042745;28;20409;-74
2022/03/09 00:42:01;;;;;;;5.53;3.45;;;;;;;;;;5038799;28;20492;-74
2022/03/09 00:44:27;;;;;;;7.38;3.20;;;;;;;;;;5041374;28;20055;-73
2022/03/09 00:46:53;;;;;;;5.85;3.40;;;;;;;;;;5044761;28;20021;-74
2022/03/09 00:49:20;;;;;;;6.43;3.22;;;;;;;;;;5042695;28;20040;-74
2022/03/09 00:51:46;;;;;;;6.57;3.80;;;;;;;;;;5042954;28;20024;-73
2022/03/09 00:54:12;;;;;;;5.97;3.17;;;;;;;;;;5042908;28;20834;-74
2022/03/09 00:56:38;;;;;;;5.97;3.35;;;;;;;;;;5039361;28;20511;-74
2022/03/09 00:59:04;;;;;;;5.30;3.25;;;;;;;;;;5038335;28;20030;-74
2022/03/09 01:01:30;;;;;;;8.38;3.20;;;;;;;;;;5040871;28;20030;-74
2022/03/09 01:03:56;;;;;;;6.13;3.05;;;;;;;;;;5033701;28;20041;-73
2022/03/09 01:06:23;;;;;;;5.68;3.25;;;;;;;;;;5038525;28;20059;-74
2022/03/09 01:08:49;;;;;;;7.65;3.70;;;;;;;;;;5042441;28;20132;-73
2022/03/09 01:11:15;;;;;;;7.18;3.35;;;;;;;;;;5039814;28;20120;-73
2022/03/09 01:13:41;;;;;;;5.35;3.20;;;;;;;;;;5043844;28;20029;-73
2022/03/09 01:16:07;;;;;;;6.18;3.00;;;;;;;;;;5042178;28;20051;-72
2022/03/09 01:18:33;;;;;;;5.43;2.83;;;;;;;;;;5040189;28;20039;-72
2022/03/09 01:21:00;;;;;;;5.28;3.80;;;;;;;;;;5038667;28;20607;-72
2022/03/09 01:23:26;;;;;;;6.85;3.70;;;;;;;;;;5039773;28;20561;-72
2022/03/09 01:25:52;;;;;;;7.40;2.83;;;;;;;;;;5042057;28;20047;-74
2022/03/09 01:28:19;;;;;;;6.15;3.20;;;;;;;;;;5038650;28;20018;-73
2022/03/09 01:30:45;;;;;;;7.55;2.83;;;;;;;;;;5041860;28;20024;-72
2022/03/09 01:33:11;;;;;;;6.88;2.90;;;;;;;;;;5040456;28;20094;-72
2022/03/09 01:35:37;;;;;;;6.47;2.80;;;;;;;;;;5040788;28;20021;-72
2022/03/09 01:38:03;;;;;;;6.93;2.80;;;;;;;;;;5038266;28;20039;-72
2022/03/09 01:40:29;;;;;;;4.13;2.75;;;;;;;;;;5040785;28;20045;-73
2022/03/09 01:42:55;;;;;;;11.15;2.75;;;;;;;;;;5041295;28;20033;-73
2022/03/09 01:45:22;;;;;;;7.53;2.80;;;;;;;;;;5045076;28;20025;-72
2022/03/09 01:47:48;;;;;;;22.00;3.10;;;;;;;;;;5044801;28;20025;-72
2022/03/09 01:50:14;;;;;;;4.38;2.65;;;;;;;;;;5045433;28;20032;-73
2022/03/09 01:52:41;;;;;;;4.25;2.25;;;;;;;;;;5039364;28;20084;-72
2022/03/09 01:55:07;;;;;;;3.67;2.95;;;;;;;;;;5045420;28;20025;-72
2022/03/09 01:57:34;;;;;;;3.83;2.40;;;;;;;;;;5047482;28;20021;-73
2022/03/09 02:00:00;;;;;;;7.28;3.17;;;;;;;;;;5041367;28;20032;-72
2022/03/09 02:02:26;;;;;;;4.35;2.45;;;;;;;;;;5036250;28;20072;-72
2022/03/09 02:04:54;;;;;;;5.18;2.65;;;;;;;;;;5037304;28;20053;-72
2022/03/09 02:09:41;;;;;;;4.07;2.60;;;;;;;;;;5041460;28;20047;-72
2022/03/09 02:10:10;;;;;;;5.07;2.65;;;;;;;;;;5040441;28;20397;-72
2022/03/09 02:12:36;;;;;;;5.50;3.25;;;;;;;;;;5036876;28;20037;-72
2022/03/09 02:15:03;;;;;;;6.70;2.83;;;;;;;;;;5041431;28;20013;-72
2022/03/09 02:17:29;;;;;;;6.80;2.78;;;;;;;;;;5040269;28;20039;-72
2022/03/09 02:19:56;;;;;;;4.35;2.65;;;;;;;;;;5037963;28;20508;-73
2022/03/09 02:22:36;;;;;;;8.18;2.80;;;;;;;;;;5040850;28;20030;-72
2022/03/09 02:25:04;;;;;;;5.40;2.75;;;;;;;;;;5040239;28;20037;-73
2022/03/09 02:27:30;;;;;;;4.10;2.83;;;;;;;;;;5033654;28;20033;-72
2022/03/09 02:29:56;;;;;;;6.53;3.13;;;;;;;;;;5040685;28;20071;-73
2022/03/09 02:32:23;;;;;;;5.53;2.70;;;;;;;;;;5037329;28;20017;-72
2022/03/09 02:34:49;;;;;;;5.53;2.78;;;;;;;;;;5037396;28;20026;-72
2022/03/09 02:37:15;;;;;;;5.95;2.88;;;;;;;;;;5039048;28;20021;-72
2022/03/09 02:39:42;;;;;;;6.30;2.75;;;;;;;;;;5043797;28;20021;-72
2022/03/09 02:42:08;;;;;;;7.13;2.67;;;;;;;;;;5040235;28;20389;-72
2022/03/09 02:44:34;;;;;;;4.05;2.53;;;;;;;;;;5038327;28;20033;-72
2022/03/09 02:47:00;;;;;;;4.93;2.75;;;;;;;;;;5043431;28;20096;-72
2022/03/09 02:49:27;;;;;;;10.50;2.95;;;;;;;;;;5045494;28;20037;-72
2022/03/09 02:51:53;;;;;;;5.10;2.58;;;;;;;;;;5041941;28;20021;-72
2022/03/09 02:54:19;;;;;;;9.32;2.83;;;;;;;;;;5046138;28;20501;-73
2022/03/09 02:56:45;;;;;;;7.55;2.97;;;;;;;;;;5040675;28;20493;-72
2022/03/09 02:59:11;;;;;;;3.55;2.40;;;;;;;;;;5040846;28;20033;-73
2022/03/09 03:01:37;;;;;;;5.72;2.63;;;;;;;;;;5047263;28;20025;-72
2022/03/09 03:04:04;;;;;;;5.40;2.78;;;;;;;;;;5042938;28;20045;-73
2022/03/09 03:06:30;;;;;;;3.47;2.40;;;;;;;;;;5044523;28;20028;-72
2022/03/09 03:08:56;;;;;;;9.18;2.88;;;;;;;;;;5044727;28;20029;-72
2022/03/09 03:11:22;;;;;;;4.20;2.60;;;;;;;;;;5042990;28;20041;-72
2022/03/09 03:13:51;;;;;;;5.10;2.58;;;;;;;;;;5041191;28;20021;-72
2022/03/09 03:16:18;;;;;;;5.38;3.17;;;;;;;;;;5047730;28;20029;-73
2022/03/09 03:18:44;;;;;;;5.65;3.50;;;;;;;;;;5047503;28;20025;-73
2022/03/09 03:21:10;;;;;;;13.32;3.25;;;;;;;;;;5039850;28;20030;-72
2022/03/09 03:23:36;;;;;;;5.20;2.90;;;;;;;;;;5043570;28;20045;-72
2022/03/09 03:26:04;;;;;;;6.30;3.17;;;;;;;;;;5041275;28;20033;-72
2022/03/09 03:28:31;;;;;;;6.10;2.75;;;;;;;;;;5039059;28;20026;-72
2022/03/09 03:30:57;;;;;;;5.82;3.00;;;;;;;;;;5045531;28;20075;-72
2022/03/09 03:33:23;;;;;;;4.35;2.80;;;;;;;;;;5049265;28;20021;-72
2022/03/09 03:35:50;;;;;;;10.07;2.90;;;;;;;;;;5048353;28;20192;-72
2022/03/09 03:38:16;;;;;;;7.85;3.40;;;;;;;;;;5040660;28;20029;-72
2022/03/09 03:40:42;;;;;;;9.15;2.83;;;;;;;;;;5040026;28;20060;-72
2022/03/09 03:43:08;;;;;;;6.55;3.33;;;;;;;;;;5040798;28;20389;-73
2022/03/09 03:45:35;;;;;;;4.82;3.08;;;;;;;;;;5040569;28;20725;-72
2022/03/09 03:48:01;;;;;;;8.27;3.33;;;;;;;;;;5039973;28;20489;-72
2022/03/09 03:50:27;;;;;;;6.50;3.35;;;;;;;;;;5046032;28;20036;-72
2022/03/09 03:52:53;;;;;;;5.65;3.50;;;;;;;;;;5039289;28;20113;-74
2022/03/09 03:55:19;;;;;;;9.18;3.58;;;;;;;;;;5043829;28;20059;-72
2022/03/09 03:57:45;;;;;;;4.88;3.15;;;;;;;;;;5034490;28;20465;-73
2022/03/09 04:00:12;;;;;;;4.72;3.13;;;;;;;;;;5035649;28;20029;-73
2022/03/09 04:02:39;;;;;;;5.18;2.92;;;;;;;;;;5031227;28;20089;-72
2022/03/09 04:05:05;;;;;;;11.27;3.25;;;;;;;;;;5037268;28;20037;-73
2022/03/09 04:07:32;;;;;;;5.40;3.05;;;;;;;;;;5037050;28;20036;-73
2022/03/09 04:09:58;;;;;;;4.15;2.78;;;;;;;;;;5029492;28;20025;-72
2022/03/09 04:12:24;;;;;;;5.45;3.15;;;;;;;;;;5032307;28;20033;-72
2022/03/09 04:14:51;;;;;;;5.07;3.20;;;;;;;;;;5033416;28;20740;-73
2022/03/09 04:17:17;;;;;;;8.32;3.05;;;;;;;;;;5029544;28;20025;-73
2022/03/09 04:19:43;;;;;;;11.60;3.30;;;;;;;;;;5029784;28;20038;-73
2022/03/09 04:22:09;;;;;;;6.82;3.00;;;;;;;;;;5027670;28;20025;-72
2022/03/09 04:24:35;;;;;;;6.20;3.20;;;;;;;;;;5032830;28;20036;-72
2022/03/09 04:27:02;;;;;;;6.80;3.30;;;;;;;;;;5028777;28;20112;-73
2022/03/09 04:29:28;;;;;;;6.28;3.15;;;;;;;;;;5029173;28;20029;-72
2022/03/09 04:31:54;;;;;;;6.75;3.47;;;;;;;;;;5028953;28;20064;-72
2022/03/09 04:34:20;;;;;;;5.43;3.22;;;;;;;;;;5032038;28;20024;-72
2022/03/09 04:36:46;;;;;;;6.55;3.35;;;;;;;;;;5036916;28;20458;-74
2022/03/09 04:39:12;;;;;;;5.88;3.58;;;;;;;;;;5041442;28;20052;-72
2022/03/09 04:41:38;;;;;;;6.25;3.10;;;;;;;;;;5041397;28;20035;-72
2022/03/09 04:44:04;;;;;;;6.20;3.33;;;;;;;;;;5039235;28;20117;-72
2022/03/09 04:46:30;;;;;;;6.50;3.35;;;;;;;;;;5041059;28;20061;-72
2022/03/09 04:48:57;;;;;;;4.15;3.10;;;;;;;;;;5039233;28;20028;-72
2022/03/09 04:51:23;;;;;;;5.10;3.08;;;;;;;;;;5039119;28;20485;-73
2022/03/09 04:53:49;;;;;;;5.88;3.72;;;;;;;;;;5040805;28;20481;-72
2022/03/09 04:56:15;;;;;;;4.95;3.15;;;;;;;;;;5039638;28;20029;-75
2022/03/09 04:58:42;;;;;;;5.88;3.40;;;;;;;;;;5031819;28;20663;-72
2022/03/09 05:01:08;;;;;;;6.28;3.90;;;;;;;;;;5019475;28;20429;-72
2022/03/09 05:03:34;;;;;;;4.82;3.33;;;;;;;;;;5037403;28;20033;-73
2022/03/09 05:06:01;;;;;;;5.78;3.05;;;;;;;;;;5040443;28;20542;-73
2022/03/09 05:08:28;;;;;;;6.80;3.55;;;;;;;;;;5032289;28;20117;-72
2022/03/09 05:10:54;;;;;;;6.00;3.47;;;;;;;;;;5019201;28;20172;-74
2022/03/09 05:13:20;;;;;;;6.47;3.30;;;;;;;;;;5021112;28;20040;-72
2022/03/09 05:15:46;;;;;;;6.30;3.25;;;;;;;;;;5018898;28;20021;-72
2022/03/09 05:18:13;;;;;;;7.35;3.53;;;;;;;;;;5020982;28;20025;-73
2022/03/09 05:20:39;;;;;;;8.13;3.35;;;;;;;;;;5020409;28;20701;-73
2022/03/09 05:23:05;;;;;;;7.63;3.10;;;;;;;;;;5020531;28;20029;-73
2022/03/09 05:25:31;;;;;;;6.15;3.42;;;;;;;;;;5020550;28;20416;-72
2022/03/09 05:27:59;;;;;;;5.72;3.88;;;;;;;;;;5019581;28;20041;-73
2022/03/09 05:30:25;;;;;;;5.68;3.17;;;;;;;;;;5020696;28;20029;-72
2022/03/09 05:32:51;;;;;;;7.95;3.60;;;;;;;;;;5030204;28;20264;-74
2022/03/09 05:35:17;;;;;;;8.13;3.78;;;;;;;;;;5040161;28;20033;-74
2022/03/09 05:37:44;;;;;;;5.97;3.08;;;;;;;;;;5038646;28;20021;-72
2022/03/09 05:40:11;;;;;;;7.18;3.20;;;;;;;;;;5040211;28;20037;-72
2022/03/09 05:42:37;;;;;;;7.07;3.25;;;;;;;;;;5040399;28;20024;-74
2022/03/09 05:45:04;;;;;;;4.40;3.25;;;;;;;;;;5039690;28;20040;-72
2022/03/09 05:47:30;;;;;;;5.57;3.50;;;;;;;;;;5036389;28;20089;-73
2022/03/09 05:49:56;;;;;;;6.32;3.42;;;;;;;;;;5039975;28;20029;-72
2022/03/09 05:52:22;;;;;;;8.20;3.40;;;;;;;;;;5040104;28;20029;-73
2022/03/09 05:54:49;;;;;;;4.47;2.83;;;;;;;;;;5040178;28;20021;-73
2022/03/09 05:57:19;;;;;;;5.97;3.45;;;;;;;;;;5039526;28;20380;-73
2022/03/09 05:59:45;;;;;;;6.30;3.33;;;;;;;;;;5038655;28;20104;-72
2022/03/09 06:02:11;;;;;;;5.65;3.40;;;;;;;;;;5020212;28;20033;-73
2022/03/09 06:04:37;;;;;;;7.28;3.40;;;;;;;;;;5020145;28;20041;-72
2022/03/09 06:07:03;;;;;;;6.30;3.63;;;;;;;;;;5019949;28;20033;-72
2022/03/09 06:09:29;;;;;;;7.60;3.50;;;;;;;;;;5019751;28;20022;-72
2022/03/09 06:11:56;;;;;;;7.78;3.22;;;;;;;;;;5018434;28;20508;-73
2022/03/09 06:14:22;;;;;;;5.82;3.58;;;;;;;;;;5020129;28;20033;-73
2022/03/09 06:16:48;;;;;;;7.70;3.40;;;;;;;;;;5019896;28;20061;-72
2022/03/09 06:19:17;;;;;;;4.80;3.67;;;;;;;;;;5020317;28;20090;-73
2022/03/09 06:21:43;;;;;;;5.00;2.90;;;;;;;;;;5022250;28;20578;-73
2022/03/09 06:24:10;;;;;;;5.35;3.40;;;;;;;;;;5021705;28;20088;-73
2022/03/09 06:26:39;;;;;;;6.75;3.30;;;;;;;;;;5022257;28;20593;-73
2022/03/09 06:29:08;;;;;;;6.60;3.28;;;;;;;;;;5022555;28;20029;-72
2022/03/09 06:31:34;;;;;;;6.38;3.53;;;;;;;;;;5037975;28;20068;-72
2022/03/09 06:34:01;;;;;;;5.40;3.30;;;;;;;;;;5042268;28;20029;-74
2022/03/09 06:36:27;;;;;;;6.55;3.30;;;;;;;;;;5023961;28;20394;-73
2022/03/09 06:38:53;;;;;;;7.30;3.40;;;;;;;;;;5023836;28;20104;-72
2022/03/09 06:41:19;;;;;;;7.82;3.53;;;;;;;;;;5024060;28;20509;-72
2022/03/09 06:43:45;;;;;;;6.22;3.30;;;;;;;;;;5023495;28;20044;-73
2022/03/09 06:46:12;;;;;;;6.65;3.60;;;;;;;;;;5022223;28;20029;-71
2022/03/09 06:48:38;;;;;;;8.05;3.33;;;;;;;;;;5036492;28;20021;-72
2022/03/09 06:51:04;;;;;;;4.93;3.10;;;;;;;;;;5045387;28;20152;-73
2022/03/09 06:53:31;;;;;;;28.92;5.70;;;;;;;;;;5045192;28;20712;-73
2022/03/09 06:55:57;;;;;;;5.38;3.22;;;;;;;;;;5043568;28;20657;-73
2022/03/09 06:58:26;;;;;;;6.18;2.95;;;;;;;;;;5044949;28;20382;-73
2022/03/09 07:00:53;;;;;;;8.77;3.22;;;;;;;;;;5045024;28;20506;-73
2022/03/09 07:03:19;;;;;;;9.68;2.97;;;;;;;;;;5043927;28;20017;-73
2022/03/09 07:05:45;;;;;;;4.43;3.00;;;;;;;;;;5043577;28;20055;-73
2022/03/09 07:08:11;;;;;;;7.88;3.30;;;;;;;;;;5042125;28;20032;-74
2022/03/09 07:10:37;;;;;;;24.58;13.35;;;;;;;;;;5045206;28;20045;-73
2022/03/09 07:13:03;;;;;;;20.45;11.38;;;;;;;;;;5045351;28;20075;-72
2022/03/09 07:15:29;;;;;;;8.45;5.47;;;;;;;;;;5045001;28;20028;-74
2022/03/09 07:17:55;;;;;;;5.50;3.33;;;;;;;;;;5045318;28;20022;-72
2022/03/09 07:20:22;;;;;;;8.93;5.53;;;;;;;;;;5043549;28;20025;-73
2022/03/09 07:22:48;;;;;;;4.05;3.33;;;;;;;;;;5045359;28;20017;-72
2022/03/09 07:25:15;;;;;;;7.72;5.78;;;;;;;;;;5044841;28;20033;-73
2022/03/09 07:27:41;;;;;;;8.88;4.43;;;;;;;;;;5043749;28;20078;-73
2022/03/09 07:30:08;;;;;;;6.93;3.70;;;;;;;;;;5044603;28;20028;-73
2022/03/09 07:32:34;;;;;;;5.80;2.85;;;;;;;;;;5043790;28;20017;-72
2022/03/09 07:35:00;;;;;;;8.27;3.60;;;;;;;;;;5044854;28;20047;-73
2022/03/09 07:37:26;;;;;;;9.38;3.45;;;;;;;;;;5043116;28;20029;-73
2022/03/09 07:39:53;;;;;;;8.38;3.83;;;;;;;;;;5044703;28;20651;-72
2022/03/09 07:42:19;;;;;;;12.13;3.22;;;;;;;;;;5044390;28;20025;-72
2022/03/09 07:44:45;;;;;;;5.68;3.22;;;;;;;;;;5044691;28;20043;-72
2022/03/09 07:47:11;;;;;;;5.75;3.20;;;;;;;;;;5044838;28;20055;-72
2022/03/09 07:49:38;;;;;;;5.05;2.95;;;;;;;;;;5043506;28;20725;-73
2022/03/09 07:52:04;;;;;;;5.65;2.90;;;;;;;;;;5044573;28;20388;-73
2022/03/09 07:54:30;;;;;;;5.80;3.45;;;;;;;;;;5044539;28;20020;-73
2022/03/09 07:56:57;;;;;;;13.93;9.15;;;;;;;;;;5044561;28;20021;-72
2022/03/09 07:59:23;;;;;;;6.30;3.70;;;;;;;;;;5044223;28;20112;-74
2022/03/09 08:01:52;;;;;;;8.00;5.35;;;;;;;;;;5041821;28;20495;-72
2022/03/09 08:04:19;;;;;;;44.28;28.02;;;;;;;;;;5044102;28;20170;-73
2022/03/09 08:06:47;;;;;;;12.93;7.80;;;;;;;;;;5044011;28;20070;-73
2022/03/09 08:09:13;;;;;;;10.90;8.13;;;;;;;;;;5044044;28;20025;-72
2022/03/09 08:11:39;;;;;;;11.68;7.93;;;;;;;;;;5042600;28;20056;-73
2022/03/09 08:14:05;;;;;;;19.63;5.82;;;;;;;;;;5044102;28;20025;-72
2022/03/09 08:16:32;;;;;;;4.88;3.20;;;;;;;;;;5044105;28;20151;-72
2022/03/09 08:18:58;;;;;;;5.68;2.83;;;;;;;;;;5044493;28;20484;-73
2022/03/09 08:21:24;;;;;;;4.45;3.28;;;;;;;;;;5043550;28;20086;-73
2022/03/09 08:23:50;;;;;;;5.10;3.20;;;;;;;;;;5043969;28;20033;-73
2022/03/09 08:26:16;;;;;;;7.07;2.88;;;;;;;;;;5042537;28;20037;-72
2022/03/09 08:28:42;;;;;;;7.30;3.20;;;;;;;;;;5044150;28;20025;-72
2022/03/09 08:31:09;;;;;;;5.07;3.25;;;;;;;;;;5043840;28;20025;-72
2022/03/09 08:33:35;;;;;;;5.18;3.13;;;;;;;;;;5043704;28;20067;-73
2022/03/09 08:36:01;;;;;;;6.18;3.00;;;;;;;;;;5043559;28;20462;-73
2022/03/09 08:38:27;;;;;;;5.00;2.90;;;;;;;;;;5042257;28;20266;-73
2022/03/09 08:40:54;;;;;;;6.90;3.38;;;;;;;;;;5043382;28;20124;-73
2022/03/09 08:43:20;;;;;;;5.97;2.92;;;;;;;;;;5043634;28;20048;-72
2022/03/09 08:45:47;;;;;;;4.07;2.90;;;;;;;;;;5043814;28;20361;-73
2022/03/09 08:48:13;;;;;;;6.05;3.17;;;;;;;;;;5041595;28;20031;-73
2022/03/09 08:50:39;;;;;;;5.63;3.80;;;;;;;;;;5020157;28;20025;-73
2022/03/09 08:53:06;;;;;;;5.43;3.88;;;;;;;;;;5020833;28;20021;-73
2022/03/09 08:55:32;;;;;;;6.38;3.47;;;;;;;;;;5023569;28;20683;-74
2022/03/09 08:58:00;;;;;;;4.25;3.03;;;;;;;;;;5023493;28;20026;-73
2022/03/09 09:00:26;;;;;;;6.28;2.97;;;;;;;;;;5023545;28;20053;-72
2022/03/09 09:02:53;;;;;;;5.70;3.30;;;;;;;;;;5021685;28;20028;-73
2022/03/09 09:05:19;;;;;;;7.95;3.92;;;;;;;;;;5023344;28;20042;-73
2022/03/09 09:07:46;;;;;;;4.63;3.05;;;;;;;;;;5023242;28;20047;-74
2022/03/09 09:10:12;;;;;;;5.40;3.30;;;;;;;;;;5022753;28;20049;-74
2022/03/09 09:12:38;;;;;;;5.72;2.67;;;;;;;;;;5023137;28;20045;-72
2022/03/09 09:15:05;;;;;;;5.38;3.00;;;;;;;;;;5021650;28;20084;-72
2022/03/09 09:17:31;;;;;;;6.53;3.55;;;;;;;;;;5022965;28;20018;-72
2022/03/09 09:19:57;;;;;;;6.03;2.72;;;;;;;;;;5023390;28;20029;-72
2022/03/09 09:22:23;;;;;;;4.65;2.50;;;;;;;;;;5022882;28;20013;-73
2022/03/09 09:24:50;;;;;;;8.15;5.93;;;;;;;;;;5022290;28;20056;-73
2022/03/09 09:27:16;;;;;;;10.55;7.57;;;;;;;;;;5022826;28;20029;-73
2022/03/09 09:29:42;;;;;;;5.10;3.33;;;;;;;;;;5021309;28;20030;-73
2022/03/09 09:32:09;;;;;;;4.95;3.17;;;;;;;;;;5022988;28;20022;-72
2022/03/09 09:34:35;;;;;;;5.45;2.65;;;;;;;;;;5022787;28;20029;-72
2022/03/09 09:37:02;;;;;;;7.10;3.35;;;;;;;;;;5022452;28;20037;-72
2022/03/09 09:39:28;;;;;;;4.38;3.00;;;;;;;;;;5020830;28;20080;-73
2022/03/09 09:41:54;;;;;;;6.65;2.83;;;;;;;;;;5022283;28;20040;-72
2022/03/09 09:44:24;;;;;;;4.05;3.05;;;;;;;;;;5022345;28;20041;-72
2022/03/09 09:46:51;;;;;;;5.95;2.92;;;;;;;;;;5022459;28;20037;-72
2022/03/09 09:49:23;;;;;;;5.50;3.47;;;;;;;;;;5022333;28;20025;-73
2022/03/09 09:51:50;;;;;;;5.63;3.00;;;;;;;;;;5020872;28;20584;-72
2022/03/09 09:54:18;;;;;;;4.93;3.30;;;;;;;;;;5022131;28;20033;-72
2022/03/09 09:56:44;;;;;;;8.88;3.70;;;;;;;;;;5021522;28;20385;-72
2022/03/09 09:59:11;;;;;;;4.68;3.10;;;;;;;;;;5020803;28;20039;-73
2022/03/09 10:01:37;;;;;;;6.57;2.88;;;;;;;;;;5021371;28;20345;-72
2022/03/09 10:04:04;;;;;;;7.53;3.00;;;;;;;;;;5021018;28;20496;-72
2022/03/09 10:06:30;;;;;;;5.97;3.50;;;;;;;;;;5022036;28;20034;-72
2022/03/09 10:09:06;;;;;;;6.50;2.80;;;;;;;;;;5020542;28;20781;-73
2022/03/09 10:11:46;;;;;;;6.03;2.90;;;;;;;;;;5020862;28;20054;-72
2022/03/09 10:14:12;;;;;;;4.47;2.78;;;;;;;;;;5022175;28;20543;-72
2022/03/09 10:16:39;;;;;;;4.25;3.00;;;;;;;;;;5022225;28;20517;-72
2022/03/09 10:19:06;;;;;;;5.10;3.15;;;;;;;;;;5020384;28;20033;-73
2022/03/09 10:21:37;;;;;;;9.13;4.80;;;;;;;;;;5021838;28;20542;-72
2022/03/09 10:24:08;;;;;;;4.47;3.47;;;;;;;;;;5022480;28;20501;-72
2022/03/09 10:26:38;;;;;;;3.70;2.50;;;;;;;;;;5022165;28;20080;-73
2022/03/09 10:29:11;;;;;;;4.35;2.53;;;;;;;;;;5022010;28;20059;-73
2022/03/09 10:31:39;;;;;;;7.55;3.00;;;;;;;;;;5020919;28;20125;-73
2022/03/09 10:34:05;;;;;;;8.05;3.45;;;;;;;;;;5022615;28;20025;-72
2022/03/09 10:36:31;;;;;;;6.63;3.08;;;;;;;;;;5022171;28;20025;-72
2022/03/09 10:39:14;;;;;;;9.55;3.35;;;;;;;;;;5021905;28;20032;-73
2022/03/09 10:41:40;;;;;;;9.35;2.88;;;;;;;;;;5019352;28;20386;-72
2022/03/09 10:44:07;;;;;;;4.70;2.80;;;;;;;;;;5021798;28;20421;-73
2022/03/09 10:46:50;;;;;;;7.38;3.22;;;;;;;;;;5021878;28;20386;-72
2022/03/09 10:49:19;;;;;;;5.72;3.58;;;;;;;;;;5022201;28;20689;-72
2022/03/09 10:51:50;;;;;;;5.22;2.63;;;;;;;;;;5020530;28;20056;-73
2022/03/09 10:54:25;;;;;;;5.07;3.47;;;;;;;;;;5021798;28;20080;-72
2022/03/09 10:57:03;;;;;;;4.20;2.85;;;;;;;;;;5021589;28;20040;-72
2022/03/09 10:59:29;;;;;;;5.80;3.40;;;;;;;;;;5021339;28;20091;-73
2022/03/09 11:02:06;;;;;;;7.53;3.75;;;;;;;;;;5020507;28;20397;-73
2022/03/09 11:04:32;;;;;;;6.47;3.55;;;;;;;;;;5021800;28;20033;-74
2022/03/09 11:06:58;;;;;;;6.13;3.22;;;;;;;;;;5022670;28;20025;-73
2022/03/09 11:09:25;;;;;;;7.28;2.90;;;;;;;;;;5023916;28;20028;-73
2022/03/09 11:11:51;;;;;;;5.68;3.28;;;;;;;;;;5024972;28;20099;-73
2022/03/09 11:14:18;;;;;;;6.35;3.40;;;;;;;;;;5025027;28;20029;-72
2022/03/09 11:16:44;;;;;;;4.45;3.05;;;;;;;;;;5025041;28;20026;-72
2022/03/09 11:19:12;;;;;;;5.72;2.95;;;;;;;;;;5023814;28;20437;-72
2022/03/09 11:21:38;;;;;;;6.13;3.72;;;;;;;;;;5025384;28;20036;-73
2022/03/09 11:24:06;;;;;;;6.10;3.63;;;;;;;;;;5024899;28;20040;-73
2022/03/09 11:26:33;;;;;;;6.00;3.45;;;;;;;;;;5023338;28;20113;-73
2022/03/09 11:29:09;;;;;;;4.78;3.58;;;;;;;;;;5025070;28;20021;-72
2022/03/09 11:31:52;;;;;;;6.40;3.83;;;;;;;;;;5025199;28;20045;-72
2022/03/09 11:34:35;;;;;;;6.22;3.25;;;;;;;;;;5025026;28;20026;-72
2022/03/09 11:37:03;;;;;;;4.60;3.00;;;;;;;;;;5026054;28;20547;-73
2022/03/09 11:39:29;;;;;;;5.95;3.10;;;;;;;;;;5027910;28;20026;-72
2022/03/09 11:42:14;;;;;;;5.97;3.13;;;;;;;;;;5028231;28;20017;-72
2022/03/09 11:44:40;;;;;;;7.28;3.42;;;;;;;;;;5028031;28;20075;-73
2022/03/09 11:47:07;;;;;;;5.90;3.20;;;;;;;;;;5025407;28;20022;-72
2022/03/09 11:49:41;;;;;;;4.15;2.97;;;;;;;;;;5027773;28;20037;-72
2022/03/09 11:52:09;;;;;;;5.35;3.30;;;;;;;;;;5027887;28;20018;-72
2022/03/09 11:54:41;;;;;;;4.57;2.90;;;;;;;;;;5027634;28;20109;-73
2022/03/09 11:57:07;;;;;;;;;;;;;;;;;;5028176;28;20029;-72
2022/03/09 11:59:33;;;;;;;10.68;4.28;;;;;;;;;;5026028;28;19905;-72
2022/03/09 12:02:04;;;;;;;9.70;3.90;;;;;;;;;;5027494;28;20362;-72
2022/03/09 12:04:45;;;;;;;9.93;3.60;;;;;;;;;;5027355;28;20064;-72
2022/03/09 12:07:11;;;;;;;6.22;2.90;;;;;;;;;;5038823;28;20025;-73
2022/03/09 12:09:57;;;;;;;7.68;3.40;;;;;;;;;;5046948;28;20381;-72
2022/03/09 12:12:24;;;;;;;6.35;3.67;;;;;;;;;;5046466;28;20040;-75
2022/03/09 12:15:00;;;;;;;8.95;3.60;;;;;;;;;;5043755;28;20587;-74
2022/03/09 12:17:39;;;;;;;5.70;3.50;;;;;;;;;;5046053;28;20104;-73
2022/03/09 12:20:18;;;;;;;10.65;3.60;;;;;;;;;;5045323;28;20036;-73
2022/03/09 12:22:56;;;;;;;6.45;3.80;;;;;;;;;;5046368;28;20096;-74
2022/03/09 12:25:37;;;;;;;11.63;4.28;;;;;;;;;;5043840;28;20152;-74
2022/03/09 12:28:29;;;;;;;7.78;3.50;;;;;;;;;;5045572;28;20025;-73
2022/03/09 12:31:07;;;;;;;8.40;3.63;;;;;;;;;;5046747;28;20017;-73
2022/03/09 12:33:38;;;;;;;14.98;4.00;;;;;;;;;;5045555;28;20086;-74
2022/03/09 12:36:04;;;;;;;10.48;3.85;;;;;;;;;;5045827;28;20056;-72
2022/03/09 12:38:37;;;;;;;7.35;3.47;;;;;;;;;;5039904;28;20568;-73
2022/03/09 12:41:03;;;;;;;7.25;2.97;;;;;;;;;;5044480;28;20470;-73
2022/03/09 12:43:48;;;;;;;9.02;3.60;;;;;;;;;;5044791;28;20496;-76
2022/03/09 12:46:14;;;;;;;7.13;4.07;;;;;;;;;;5035866;28;20042;-73
2022/03/09 12:48:41;;;;;;;11.60;3.53;;;;;;;;;;5026436;28;20025;-74
2022/03/09 12:51:07;;;;;;;6.25;2.92;;;;;;;;;;5044295;28;20023;-74
2022/03/09 12:53:33;;;;;;;7.25;3.47;;;;;;;;;;5043866;28;20518;-75
2022/03/09 12:56:19;;;;;;;4.95;3.00;;;;;;;;;;5044613;28;20029;-74
2022/03/09 12:58:46;;;;;;;4.82;2.90;;;;;;;;;;5044188;28;20033;-73
2022/03/09 13:01:13;;;;;;;12.20;3.80;;;;;;;;;;5044600;28;20038;-75
2022/03/09 13:03:40;;;;;;;7.43;3.28;;;;;;;;;;5043166;28;20033;-74
2022/03/09 13:06:25;;;;;;;8.40;4.00;;;;;;;;;;5044181;28;20033;-74
2022/03/09 13:08:52;;;;;;;5.30;3.30;;;;;;;;;;5044696;28;20032;-74
2022/03/09 13:11:34;;;;;;;6.30;3.35;;;;;;;;;;5045243;28;20056;-74
2022/03/09 13:14:01;;;;;;;4.88;3.05;;;;;;;;;;5031550;28;20025;-75
2022/03/09 13:16:27;;;;;;;6.40;3.42;;;;;;;;;;5043217;28;20132;-74
2022/03/09 13:18:55;;;;;;;7.35;3.60;;;;;;;;;;5042465;28;20025;-74
2022/03/09 13:21:25;;;;;;;8.15;3.53;;;;;;;;;;5044695;28;20025;-74
2022/03/09 13:23:51;;;;;;;4.53;3.00;;;;;;;;;;5038465;28;20033;-73
2022/03/09 13:26:25;;;;;;;4.90;3.53;;;;;;;;;;5043960;28;20024;-74
2022/03/09 13:28:59;;;;;;;7.45;3.40;;;;;;;;;;5043152;28;20082;-74
2022/03/09 13:31:42;;;;;;;5.88;3.90;;;;;;;;;;5043421;28;20377;-75
2022/03/09 13:34:08;;;;;;;;;;;;;;;;;;5045237;28;20040;-75
2022/03/09 13:36:35;;;;;;;5.75;3.28;;;;;;;;;;5040671;28;19956;-76
2022/03/09 13:39:01;;;;;;;8.20;3.40;;;;;;;;;;5037911;28;20044;-74
2022/03/09 13:41:28;;;;;;;5.03;3.55;;;;;;;;;;5036905;28;20031;-75
2022/03/09 13:43:54;;;;;;;5.97;3.25;;;;;;;;;;5025088;28;20044;-75
2022/03/09 13:46:23;;;;;;;5.72;3.45;;;;;;;;;;5027198;28;20021;-76
2022/03/09 13:49:08;;;;;;;7.43;3.60;;;;;;;;;;5038833;28;20028;-75
2022/03/09 13:51:35;;;;;;;5.53;3.50;;;;;;;;;;5017894;28;20171;-76
2022/03/09 13:54:02;;;;;;;6.57;3.83;;;;;;;;;;5027878;28;20060;-76
2022/03/09 13:56:28;;;;;;;7.60;3.25;;;;;;;;;;5019312;28;20671;-77
2022/03/09 13:58:55;;;;;;;7.43;3.65;;;;;;;;;;5033691;28;20104;-76
2022/03/09 14:01:22;;;;;;;6.50;3.55;;;;;;;;;;5038905;28;20418;-77
2022/03/09 14:03:52;;;;;;;5.88;3.40;;;;;;;;;;5039043;28;20048;-76
2022/03/09 14:06:25;;;;;;;8.48;4.18;;;;;;;;;;5039010;28;20056;-75
2022/03/09 14:08:52;;;;;;;5.93;3.67;;;;;;;;;;5037094;28;20037;-76
2022/03/09 14:11:23;;;;;;;7.75;3.53;;;;;;;;;;5038325;28;20127;-76
2022/03/09 14:14:00;;;;;;;4.65;3.20;;;;;;;;;;5039033;28;20021;-76
2022/03/09 14:16:31;;;;;;;8.73;3.45;;;;;;;;;;5035882;28;20036;-77
2022/03/09 14:18:58;;;;;;;5.22;3.30;;;;;;;;;;5037639;28;20086;-78
2022/03/09 14:21:24;;;;;;;5.88;3.22;;;;;;;;;;5036982;28;20550;-78
2022/03/09 14:23:54;;;;;;;5.97;3.17;;;;;;;;;;5030952;28;20385;-79
2022/03/09 14:26:20;;;;;;;5.97;3.40;;;;;;;;;;5029105;28;20519;-77
2022/03/09 14:28:49;;;;;;;5.95;3.05;;;;;;;;;;5038560;28;20025;-77
2022/03/09 14:31:15;;;;;;;4.63;3.00;;;;;;;;;;5034796;28;20108;-76
2022/03/09 14:33:42;;;;;;;5.53;3.08;;;;;;;;;;5038975;28;20366;-76
2022/03/09 14:36:08;;;;;;;6.78;3.63;;;;;;;;;;5037535;28;20033;-77
2022/03/09 14:38:35;;;;;;;5.93;3.13;;;;;;;;;;5038377;28;20088;-76
2022/03/09 14:41:02;;;;;;;4.93;2.88;;;;;;;;;;5037046;28;20064;-77
2022/03/09 14:43:28;;;;;;;4.68;3.45;;;;;;;;;;5039854;28;20158;-78
2022/03/09 14:45:54;;;;;;;5.97;3.13;;;;;;;;;;5039621;28;20132;-76